Time;durP1;ratioP1;P1;durP2;ratioP2;P2;SDS_P1;SDS_P2;PMS_P1;PMS_P2;Temp;Humidity;BMP_temperature;BMP_pressure;BME280_temperature;BME280_humidity;BME280_pressure;Samples;Min_cycle;Max_cycle;Signal;HPM_P1;HPM_P2
2022/06/24 00:06:41;;;;;;;4.55;2.05;;;;;;;;;;4709587;30;20068;-87
2022/06/24 00:19:23;;;;;;;;;;;;;;;;;;;;;
2022/06/24 00:22:53;;;;;;;2.45;2.25;;;;;;;;;;4772240;29;20059;-86
2022/06/24 00:26:14;;;;;;;4.18;2.00;;;;;;;;;;4776357;29;20066;-87
2022/06/24 01:00:12;;;;;;;2.13;2.03;;;;;;;;;;4869812;24;20057;-82
2022/06/24 01:02:40;;;;;;;3.70;2.28;;;;;;;;;;4842354;29;20045;-82
2022/06/24 01:05:11;;;;;;;3.30;1.98;;;;;;;;;;4861776;29;20045;-82
2022/06/24 01:07:39;;;;;;;2.38;2.10;;;;;;;;;;4864658;29;20474;-82
2022/06/24 01:10:08;;;;;;;2.60;2.05;;;;;;;;;;4867478;29;20057;-82
2022/06/24 01:12:36;;;;;;;2.42;2.22;;;;;;;;;;4850896;29;20077;-82
2022/06/24 01:15:04;;;;;;;2.35;2.10;;;;;;;;;;4817571;29;20049;-82
2022/06/24 01:17:31;;;;;;;4.38;2.30;;;;;;;;;;4835267;29;20159;-82
2022/06/24 01:19:59;;;;;;;2.15;2.05;;;;;;;;;;4846763;29;20054;-82
2022/06/24 01:22:27;;;;;;;3.28;1.98;;;;;;;;;;4852227;29;20558;-82
2022/06/24 01:24:55;;;;;;;2.72;2.10;;;;;;;;;;4863169;29;20045;-82
2022/06/24 01:27:22;;;;;;;2.55;2.10;;;;;;;;;;4850483;29;20151;-82
2022/06/24 01:29:50;;;;;;;5.13;2.35;;;;;;;;;;4833280;29;20081;-82
2022/06/24 01:32:17;;;;;;;5.18;2.40;;;;;;;;;;4849283;29;20121;-82
2022/06/24 01:34:45;;;;;;;4.70;2.40;;;;;;;;;;4843792;29;20056;-82
2022/06/24 01:37:13;;;;;;;4.78;2.65;;;;;;;;;;4850398;29;20143;-82
2022/06/24 01:39:40;;;;;;;2.75;2.10;;;;;;;;;;4852420;29;20042;-82
2022/06/24 01:42:08;;;;;;;2.70;2.20;;;;;;;;;;4809949;29;20046;-82
2022/06/24 01:44:35;;;;;;;2.13;1.88;;;;;;;;;;4856627;29;20517;-82
2022/06/24 01:47:06;;;;;;;2.25;2.15;;;;;;;;;;4839517;29;20045;-81
2022/06/24 01:49:33;;;;;;;2.33;2.13;;;;;;;;;;4842280;29;20466;-81
2022/06/24 01:52:01;;;;;;;2.95;2.22;;;;;;;;;;4857820;29;20049;-82
2022/06/24 01:54:28;;;;;;;2.10;1.90;;;;;;;;;;4839984;29;20136;-82
2022/06/24 01:56:55;;;;;;;4.85;2.28;;;;;;;;;;4859537;29;20049;-82
2022/06/24 01:59:23;;;;;;;2.10;2.00;;;;;;;;;;4842147;29;20046;-82
2022/06/24 02:01:51;;;;;;;2.05;1.95;;;;;;;;;;4859612;29;20053;-82
2022/06/24 02:04:18;;;;;;;2.50;2.20;;;;;;;;;;4825699;29;20120;-82
2022/06/24 02:06:46;;;;;;;2.38;2.15;;;;;;;;;;4857018;29;20417;-82
2022/06/24 02:09:16;;;;;;;2.88;2.30;;;;;;;;;;4855884;29;20289;-81
2022/06/24 02:14:30;;;;;;;3.25;3.00;;;;;;;;;;4846475;29;20137;-81
2022/06/24 02:16:58;;;;;;;2.70;2.50;;;;;;;;;;4850929;29;20046;-82
2022/06/24 02:19:26;;;;;;;3.42;3.13;;;;;;;;;;4851160;29;20061;-82
2022/06/24 02:21:53;;;;;;;4.13;3.75;;;;;;;;;;4848235;29;20065;-82
2022/06/24 02:24:21;;;;;;;4.97;4.00;;;;;;;;;;4831258;29;20049;-82
2022/06/24 02:26:48;;;;;;;8.52;6.72;;;;;;;;;;4828884;29;20042;-82
2022/06/24 02:29:16;;;;;;;7.28;6.38;;;;;;;;;;4840005;29;20589;-82
2022/06/24 02:31:43;;;;;;;11.43;9.02;;;;;;;;;;4860331;29;20110;-82
2022/06/24 02:34:11;;;;;;;11.20;9.00;;;;;;;;;;4865546;29;20045;-82
2022/06/24 02:36:38;;;;;;;13.20;9.70;;;;;;;;;;4835725;29;20056;-83
2022/06/24 02:39:06;;;;;;;14.07;10.38;;;;;;;;;;4860830;29;20081;-82
2022/06/24 02:41:33;;;;;;;13.07;9.70;;;;;;;;;;4853812;29;20049;-82
2022/06/24 02:44:01;;;;;;;13.30;9.45;;;;;;;;;;4865982;29;20053;-82
2022/06/24 02:46:28;;;;;;;14.10;10.07;;;;;;;;;;4866605;29;20083;-82
2022/06/24 02:48:56;;;;;;;12.77;9.90;;;;;;;;;;4848582;29;20053;-82
2022/06/24 02:51:23;;;;;;;14.93;10.23;;;;;;;;;;4846423;29;20109;-82
2022/06/24 02:53:51;;;;;;;13.25;9.93;;;;;;;;;;4863496;29;20054;-83
2022/06/24 02:56:18;;;;;;;11.10;8.88;;;;;;;;;;4846925;29;20896;-83
2022/06/24 02:58:46;;;;;;;11.35;8.40;;;;;;;;;;4868851;29;20052;-82
2022/06/24 03:01:13;;;;;;;13.50;10.20;;;;;;;;;;4819327;29;20128;-82
2022/06/24 03:03:41;;;;;;;11.85;9.10;;;;;;;;;;4836595;29;20052;-81
2022/06/24 03:06:09;;;;;;;11.00;9.50;;;;;;;;;;4866235;29;20473;-82
2022/06/24 03:08:37;;;;;;;12.15;8.80;;;;;;;;;;4837501;29;20067;-82
2022/06/24 03:11:12;;;;;;;10.10;8.20;;;;;;;;;;4862025;29;20100;-82
2022/06/24 03:13:39;;;;;;;9.95;8.50;;;;;;;;;;4838771;29;20055;-82
2022/06/24 03:16:07;;;;;;;10.73;8.57;;;;;;;;;;4857137;29;20059;-82
2022/06/24 03:18:34;;;;;;;9.00;7.60;;;;;;;;;;4865838;29;20502;-82
2022/06/24 03:21:02;;;;;;;10.57;6.25;;;;;;;;;;4853500;29;20054;-82
2022/06/24 03:23:29;;;;;;;8.55;6.85;;;;;;;;;;4851325;29;20829;-82
2022/06/24 03:25:57;;;;;;;6.60;4.70;;;;;;;;;;4843270;29;20472;-82
2022/06/24 03:28:24;;;;;;;10.90;5.43;;;;;;;;;;4842970;29;20557;-83
2022/06/24 03:30:52;;;;;;;5.03;4.50;;;;;;;;;;4848707;29;20056;-82
2022/06/24 03:33:19;;;;;;;6.38;4.50;;;;;;;;;;4828523;29;20151;-83
2022/06/24 03:35:47;;;;;;;8.90;5.22;;;;;;;;;;4830322;29;20057;-83
2022/06/24 03:38:14;;;;;;;6.15;5.18;;;;;;;;;;4858613;29;20065;-82
2022/06/24 03:40:42;;;;;;;6.45;4.90;;;;;;;;;;4869272;29;20048;-82
2022/06/24 03:43:09;;;;;;;7.43;4.57;;;;;;;;;;4864991;29;20041;-82
2022/06/24 03:45:36;;;;;;;4.47;4.07;;;;;;;;;;4861539;29;20038;-82
2022/06/24 03:48:04;;;;;;;5.32;4.32;;;;;;;;;;4863060;29;20120;-82
2022/06/24 03:50:31;;;;;;;6.78;4.10;;;;;;;;;;4844486;29;20052;-82
2022/06/24 03:52:59;;;;;;;5.43;4.00;;;;;;;;;;4854841;29;20843;-82
2022/06/24 03:55:27;;;;;;;4.50;4.10;;;;;;;;;;4846085;29;20053;-82
2022/06/24 03:57:54;;;;;;;4.00;3.63;;;;;;;;;;4845024;29;20657;-83
2022/06/24 04:00:21;;;;;;;5.07;4.10;;;;;;;;;;4822840;29;20041;-82
2022/06/24 04:02:49;;;;;;;5.75;3.70;;;;;;;;;;4848407;29;20053;-83
2022/06/24 04:05:16;;;;;;;4.30;3.90;;;;;;;;;;4836467;29;20046;-82
2022/06/24 04:07:44;;;;;;;5.72;3.40;;;;;;;;;;4830356;29;20056;-83
2022/06/24 04:10:11;;;;;;;4.63;3.85;;;;;;;;;;4839176;29;20085;-82
2022/06/24 04:12:39;;;;;;;4.10;3.70;;;;;;;;;;4854095;29;20121;-82
2022/06/24 04:15:19;;;;;;;4.32;3.70;;;;;;;;;;4846743;29;20052;-82
2022/06/24 04:17:47;;;;;;;4.55;4.13;;;;;;;;;;4863085;29;20057;-83
2022/06/24 04:20:16;;;;;;;6.18;4.05;;;;;;;;;;4818986;29;20145;-82
2022/06/24 04:22:43;;;;;;;4.60;4.20;;;;;;;;;;4858667;29;20076;-83
2022/06/24 04:25:11;;;;;;;4.07;3.78;;;;;;;;;;4847152;29;20102;-83
2022/06/24 04:27:39;;;;;;;4.25;3.95;;;;;;;;;;4849228;29;20069;-83
2022/06/24 04:30:08;;;;;;;5.57;3.55;;;;;;;;;;4847929;29;20107;-81
2022/06/24 04:32:35;;;;;;;4.40;4.10;;;;;;;;;;4830977;29;20056;-81
2022/06/24 04:35:04;;;;;;;5.72;4.10;;;;;;;;;;4861395;29;20087;-83
2022/06/24 04:37:34;;;;;;;4.22;3.88;;;;;;;;;;4824626;29;20124;-83
2022/06/24 04:40:02;;;;;;;5.80;4.20;;;;;;;;;;4847813;29;20052;-83
2022/06/24 04:42:31;;;;;;;5.15;4.65;;;;;;;;;;4845206;29;20077;-83
2022/06/24 04:44:59;;;;;;;5.88;5.20;;;;;;;;;;4834888;29;20069;-83
2022/06/24 04:47:27;;;;;;;5.50;5.00;;;;;;;;;;4845942;29;20056;-84
2022/06/24 04:49:55;;;;;;;8.30;4.70;;;;;;;;;;4853627;29;20466;-82
2022/06/24 04:52:22;;;;;;;5.05;4.35;;;;;;;;;;4860875;29;20189;-83
2022/06/24 04:54:50;;;;;;;6.97;4.57;;;;;;;;;;4855465;29;20053;-82
2022/06/24 04:57:18;;;;;;;5.97;4.00;;;;;;;;;;4848322;29;20077;-83
2022/06/24 04:59:45;;;;;;;6.05;4.00;;;;;;;;;;4860405;29;20049;-82
2022/06/24 05:02:12;;;;;;;5.05;3.58;;;;;;;;;;4848299;29;20041;-82
2022/06/24 05:04:42;;;;;;;9.50;3.80;;;;;;;;;;4830129;29;20117;-84
2022/06/24 05:07:10;;;;;;;5.80;3.88;;;;;;;;;;4854264;29;20048;-84
2022/06/24 05:09:37;;;;;;;4.40;4.00;;;;;;;;;;4847149;29;20049;-84
2022/06/24 05:12:05;;;;;;;6.47;3.72;;;;;;;;;;4855236;29;20049;-83
2022/06/24 05:14:33;;;;;;;7.07;4.22;;;;;;;;;;4854313;29;20049;-85
2022/06/24 05:17:01;;;;;;;4.22;3.85;;;;;;;;;;4834807;29;20502;-84
2022/06/24 05:19:29;;;;;;;5.30;3.67;;;;;;;;;;4857836;29;20048;-84
2022/06/24 05:21:57;;;;;;;5.80;3.90;;;;;;;;;;4858881;29;20502;-84
2022/06/24 05:24:24;;;;;;;3.97;3.20;;;;;;;;;;4855154;29;20522;-85
2022/06/24 05:26:52;;;;;;;6.60;3.60;;;;;;;;;;4847465;29;20136;-84
2022/06/24 05:29:22;;;;;;;4.25;3.20;;;;;;;;;;4865797;29;20056;-84
2022/06/24 05:31:49;;;;;;;5.93;3.28;;;;;;;;;;4849465;29;20682;-84
2022/06/24 05:34:17;;;;;;;3.85;3.40;;;;;;;;;;4850366;29;20458;-84
2022/06/24 05:36:44;;;;;;;5.07;4.40;;;;;;;;;;4860057;29;20421;-84
2022/06/24 05:39:12;;;;;;;5.38;3.03;;;;;;;;;;4865344;29;20510;-84
2022/06/24 05:41:41;;;;;;;6.50;3.78;;;;;;;;;;4831821;29;20136;-84
2022/06/24 05:44:10;;;;;;;7.00;3.92;;;;;;;;;;4852672;29;20053;-84
2022/06/24 05:46:38;;;;;;;3.88;2.95;;;;;;;;;;4847208;29;20050;-84
2022/06/24 05:49:06;;;;;;;4.55;3.00;;;;;;;;;;4843521;29;20051;-84
2022/06/24 05:51:36;;;;;;;4.10;2.15;;;;;;;;;;4848117;29;20084;-84
2022/06/24 05:56:50;;;;;;;4.50;2.40;;;;;;;;;;4832205;29;20402;-83
2022/06/24 05:59:18;;;;;;;3.50;2.10;;;;;;;;;;4865911;29;20132;-84
2022/06/24 06:01:45;;;;;;;3.97;2.10;;;;;;;;;;4835222;29;20056;-84
2022/06/24 06:04:13;;;;;;;2.17;1.70;;;;;;;;;;4862378;29;20069;-84
2022/06/24 06:06:40;;;;;;;2.03;1.70;;;;;;;;;;4862468;29;20055;-84
2022/06/24 06:09:10;;;;;;;4.47;1.98;;;;;;;;;;4846931;29;20049;-84
2022/06/24 06:11:40;;;;;;;2.53;1.50;;;;;;;;;;4864830;29;20041;-84
2022/06/24 06:14:08;;;;;;;3.38;1.67;;;;;;;;;;4846190;29;20489;-84
2022/06/24 06:16:35;;;;;;;3.83;1.60;;;;;;;;;;4846638;29;20045;-83
2022/06/24 06:19:04;;;;;;;5.90;1.60;;;;;;;;;;4866628;29;20048;-84
2022/06/24 06:21:32;;;;;;;3.63;1.35;;;;;;;;;;4848494;29;20044;-84
2022/06/24 06:23:59;;;;;;;2.55;1.42;;;;;;;;;;4863480;29;20049;-84
2022/06/24 06:26:29;;;;;;;5.03;1.55;;;;;;;;;;4844632;29;20044;-84
2022/06/24 06:28:57;;;;;;;3.60;1.60;;;;;;;;;;4855953;24;20088;-77
2022/06/24 06:31:25;;;;;;;3.75;1.40;;;;;;;;;;4866900;29;20144;-77
2022/06/24 06:33:53;;;;;;;7.68;1.60;;;;;;;;;;4867260;29;20084;-77
2022/06/24 06:36:20;;;;;;;5.10;1.48;;;;;;;;;;4862726;29;20045;-77
2022/06/24 06:38:47;;;;;;;3.72;1.20;;;;;;;;;;4842407;29;20175;-78
2022/06/24 06:41:17;;;;;;;4.47;1.25;;;;;;;;;;4843580;29;20041;-77
2022/06/24 06:43:44;;;;;;;5.63;1.48;;;;;;;;;;4866924;29;20403;-79
2022/06/24 06:46:12;;;;;;;3.63;1.30;;;;;;;;;;4858486;29;20041;-78
2022/06/24 06:48:40;;;;;;;4.05;1.40;;;;;;;;;;4861776;29;20037;-77
2022/06/24 06:51:07;;;;;;;4.53;1.27;;;;;;;;;;4868796;29;20055;-77
2022/06/24 06:53:35;;;;;;;2.13;1.50;;;;;;;;;;4868311;29;20051;-81
2022/06/24 06:56:04;;;;;;;3.63;1.20;;;;;;;;;;4857254;29;20418;-78
2022/06/24 06:58:31;;;;;;;5.93;1.45;;;;;;;;;;4863698;29;20041;-80
2022/06/24 07:00:58;;;;;;;2.08;1.30;;;;;;;;;;4855840;29;20068;-78
2022/06/24 07:03:26;;;;;;;7.47;1.90;;;;;;;;;;4839747;29;20041;-77
2022/06/24 07:05:54;;;;;;;4.10;1.25;;;;;;;;;;4856651;29;20041;-77
2022/06/24 07:08:23;;;;;;;4.97;1.30;;;;;;;;;;4832248;29;20542;-77
2022/06/24 07:10:50;;;;;;;4.35;1.20;;;;;;;;;;4862304;29;20053;-78
2022/06/24 07:13:19;;;;;;;2.33;1.30;;;;;;;;;;4864299;29;20064;-80
2022/06/24 07:15:47;;;;;;;2.40;1.20;;;;;;;;;;4856708;29;20049;-78
2022/06/24 07:18:14;;;;;;;2.78;1.23;;;;;;;;;;4837040;29;20529;-80
2022/06/24 07:20:45;;;;;;;5.53;1.50;;;;;;;;;;4856980;29;20042;-77
2022/06/24 07:23:13;;;;;;;7.90;1.70;;;;;;;;;;4873434;29;20045;-77
2022/06/24 07:25:40;;;;;;;4.25;1.63;;;;;;;;;;4863486;29;20082;-77
2022/06/24 07:28:08;;;;;;;2.17;1.20;;;;;;;;;;4836405;29;20414;-77
2022/06/24 07:30:35;;;;;;;4.57;1.50;;;;;;;;;;4854292;29;20049;-77
2022/06/24 07:33:02;;;;;;;2.72;1.40;;;;;;;;;;4855113;29;20467;-77
2022/06/24 07:35:30;;;;;;;2.63;1.45;;;;;;;;;;4854894;29;20063;-77
2022/06/24 07:38:17;;;;;;;4.32;1.40;;;;;;;;;;4853450;29;20136;-78
2022/06/24 07:40:44;;;;;;;2.78;1.40;;;;;;;;;;4838649;29;20128;-78
2022/06/24 07:43:12;;;;;;;3.38;1.50;;;;;;;;;;4854641;29;20122;-77
2022/06/24 07:45:39;;;;;;;11.13;2.42;;;;;;;;;;4852962;29;20606;-77
2022/06/24 07:48:07;;;;;;;6.40;1.50;;;;;;;;;;4852210;29;20045;-77
2022/06/24 07:50:34;;;;;;;3.70;1.70;;;;;;;;;;4848293;29;20050;-79
2022/06/24 07:53:02;;;;;;;1.92;1.20;;;;;;;;;;4821092;29;20065;-77
2022/06/24 07:58:15;;;;;;;2.85;1.20;;;;;;;;;;4835523;29;20084;-77
2022/06/24 08:00:42;;;;;;;4.43;1.33;;;;;;;;;;4837967;29;20079;-79
2022/06/24 08:03:10;;;;;;;2.88;1.58;;;;;;;;;;4854313;29;20049;-77
2022/06/24 08:05:37;;;;;;;3.40;1.50;;;;;;;;;;4822104;29;20056;-79
2022/06/24 08:08:05;;;;;;;2.45;2.03;;;;;;;;;;4839210;29;20092;-78
2022/06/24 08:10:33;;;;;;;2.35;1.65;;;;;;;;;;4841217;29;20041;-77
2022/06/24 08:13:01;;;;;;;2.40;1.88;;;;;;;;;;4846276;29;20049;-77
2022/06/24 08:15:28;;;;;;;3.67;1.90;;;;;;;;;;4859885;29;20055;-78
2022/06/24 08:17:56;;;;;;;3.72;2.10;;;;;;;;;;4856020;29;20414;-80
2022/06/24 08:20:23;;;;;;;2.25;1.60;;;;;;;;;;4849391;29;20490;-81
2022/06/24 08:22:51;;;;;;;4.75;1.70;;;;;;;;;;4849966;29;20066;-77
2022/06/24 08:25:18;;;;;;;5.15;1.70;;;;;;;;;;4858858;29;20133;-77
2022/06/24 08:27:49;;;;;;;3.38;2.15;;;;;;;;;;4829583;29;20050;-78
2022/06/24 08:30:17;;;;;;;3.00;2.15;;;;;;;;;;4859955;29;20077;-78
2022/06/24 08:32:44;;;;;;;2.70;2.33;;;;;;;;;;4837439;29;20062;-78
2022/06/24 08:35:12;;;;;;;4.35;2.00;;;;;;;;;;4855155;29;20054;-79
2022/06/24 08:37:55;;;;;;;5.50;2.58;;;;;;;;;;4858831;29;20541;-78
2022/06/24 08:40:25;;;;;;;2.38;1.90;;;;;;;;;;4854099;29;20049;-80
2022/06/24 08:42:54;;;;;;;2.75;1.58;;;;;;;;;;4850853;29;20044;-78
2022/06/24 08:45:21;;;;;;;2.60;1.90;;;;;;;;;;4853870;29;20341;-78
2022/06/24 08:47:49;;;;;;;2.10;1.60;;;;;;;;;;4851117;29;20060;-79
2022/06/24 08:50:17;;;;;;;3.00;2.47;;;;;;;;;;4847783;29;20310;-80
2022/06/24 08:52:49;;;;;;;5.10;2.05;;;;;;;;;;4848951;29;20049;-78
2022/06/24 08:55:23;;;;;;;4.28;2.00;;;;;;;;;;4851474;29;20447;-77
2022/06/24 08:57:50;;;;;;;3.17;2.15;;;;;;;;;;4860950;29;20175;-80
2022/06/24 09:00:18;;;;;;;3.58;2.30;;;;;;;;;;4839865;29;20034;-77
2022/06/24 09:02:48;;;;;;;5.55;2.13;;;;;;;;;;4839273;29;20097;-75
2022/06/24 09:05:18;;;;;;;4.65;2.25;;;;;;;;;;4860339;29;20072;-77
2022/06/24 09:07:46;;;;;;;2.83;1.92;;;;;;;;;;4857036;29;20517;-76
2022/06/24 09:10:14;;;;;;;4.00;2.10;;;;;;;;;;4869142;29;20422;-79
2022/06/24 09:12:46;;;;;;;5.25;2.45;;;;;;;;;;4850375;29;20099;-79
2022/06/24 09:15:14;;;;;;;2.95;2.65;;;;;;;;;;4856453;29;20046;-78
2022/06/24 09:17:42;;;;;;;4.30;2.80;;;;;;;;;;4845040;29;20091;-79
2022/06/24 09:20:09;;;;;;;6.43;3.55;;;;;;;;;;4851355;29;20592;-79
2022/06/24 09:23:07;;;;;;;4.65;3.30;;;;;;;;;;4846386;29;20857;-78
2022/06/24 09:25:47;;;;;;;4.53;3.10;;;;;;;;;;4845066;29;20049;-80
2022/06/24 09:28:21;;;;;;;4.45;2.80;;;;;;;;;;4861413;29;20045;-79
2022/06/24 09:30:49;;;;;;;5.38;2.42;;;;;;;;;;4858681;29;20058;-77
2022/06/24 09:33:17;;;;;;;4.43;2.60;;;;;;;;;;4861846;29;20065;-80
2022/06/24 09:36:01;;;;;;;6.18;2.60;;;;;;;;;;4866222;29;20056;-78
2022/06/24 09:38:29;;;;;;;4.80;2.80;;;;;;;;;;4864520;29;20045;-79
2022/06/24 09:41:06;;;;;;;4.32;2.85;;;;;;;;;;4866221;29;20136;-77
2022/06/24 09:43:33;;;;;;;3.53;2.53;;;;;;;;;;4864265;29;20044;-77
2022/06/24 09:46:01;;;;;;;4.47;3.45;;;;;;;;;;4862066;29;20490;-76
2022/06/24 09:48:38;;;;;;;4.80;3.00;;;;;;;;;;4857038;29;20041;-76
2022/06/24 09:51:06;;;;;;;5.63;3.35;;;;;;;;;;4855183;29;20101;-76
2022/06/24 09:53:39;;;;;;;7.60;2.63;;;;;;;;;;4861398;29;20041;-77
2022/06/24 09:56:07;;;;;;;3.83;2.78;;;;;;;;;;4864904;29;20541;-78
2022/06/24 09:58:38;;;;;;;3.83;2.70;;;;;;;;;;4850005;29;20149;-78
2022/06/24 10:01:07;;;;;;;4.28;2.80;;;;;;;;;;4864604;29;20057;-76
2022/06/24 10:03:35;;;;;;;6.35;3.25;;;;;;;;;;4868038;29;20041;-77
2022/06/24 10:06:10;;;;;;;4.40;3.15;;;;;;;;;;4861058;29;20041;-80
2022/06/24 10:08:37;;;;;;;3.35;2.60;;;;;;;;;;4860249;29;20048;-79
2022/06/24 10:11:26;;;;;;;4.65;3.10;;;;;;;;;;4840325;29;20052;-77
2022/06/24 10:13:54;;;;;;;4.00;2.80;;;;;;;;;;4823641;29;20057;-80
2022/06/24 10:16:29;;;;;;;5.63;2.90;;;;;;;;;;4858490;29;20507;-77
2022/06/24 10:18:57;;;;;;;4.60;2.65;;;;;;;;;;4843066;29;20053;-77
2022/06/24 10:21:24;;;;;;;2.88;2.42;;;;;;;;;;4847577;29;20056;-79
2022/06/24 10:23:56;;;;;;;2.93;2.50;;;;;;;;;;4864240;29;20049;-77
2022/06/24 10:26:24;;;;;;;4.72;2.70;;;;;;;;;;4839623;29;20061;-78
2022/06/24 10:29:04;;;;;;;4.60;3.00;;;;;;;;;;4860230;29;20044;-80
2022/06/24 10:31:38;;;;;;;5.18;2.40;;;;;;;;;;4856009;29;20053;-76
2022/06/24 10:34:05;;;;;;;9.77;2.83;;;;;;;;;;4857080;29;20421;-78
2022/06/24 10:36:33;;;;;;;6.30;2.50;;;;;;;;;;4857073;29;20506;-78
2022/06/24 10:39:11;;;;;;;3.58;2.22;;;;;;;;;;4843090;29;20132;-77
2022/06/24 10:41:41;;;;;;;2.42;1.73;;;;;;;;;;4856308;29;20436;-77
2022/06/24 10:44:28;;;;;;;6.57;2.33;;;;;;;;;;4852612;29;20072;-76
2022/06/24 10:47:07;;;;;;;3.50;2.13;;;;;;;;;;4854584;29;20724;-80
2022/06/24 10:49:55;;;;;;;5.57;2.35;;;;;;;;;;4832346;29;20086;-77
2022/06/24 10:52:51;;;;;;;4.97;2.20;;;;;;;;;;4854689;29;20112;-77
2022/06/24 10:55:20;;;;;;;5.22;1.85;;;;;;;;;;4855887;29;20061;-77
2022/06/24 10:57:51;;;;;;;5.65;2.08;;;;;;;;;;4849729;29;20041;-77
2022/06/24 11:00:23;;;;;;;6.20;2.08;;;;;;;;;;4848410;29;20101;-76
2022/06/24 11:02:52;;;;;;;3.53;1.60;;;;;;;;;;4839107;29;20448;-76
2022/06/24 11:05:23;;;;;;;6.13;1.98;;;;;;;;;;4854508;29;20144;-77
2022/06/24 11:07:52;;;;;;;2.33;2.03;;;;;;;;;;4843828;29;20106;-79
2022/06/24 11:10:21;;;;;;;2.83;2.35;;;;;;;;;;4852592;29;20072;-77
2022/06/24 11:12:53;;;;;;;2.70;1.95;;;;;;;;;;4851533;29;20048;-77
2022/06/24 11:15:34;;;;;;;5.65;2.00;;;;;;;;;;4845258;29;20053;-80
2022/06/24 11:18:12;;;;;;;7.10;2.63;;;;;;;;;;4843603;29;20128;-79
2022/06/24 11:20:44;;;;;;;4.07;2.55;;;;;;;;;;4859730;29;20402;-77
2022/06/24 11:23:12;;;;;;;6.05;2.42;;;;;;;;;;4859938;29;20045;-76
2022/06/24 11:25:41;;;;;;;3.65;2.35;;;;;;;;;;4850527;29;20463;-76
2022/06/24 11:28:22;;;;;;;5.43;2.92;;;;;;;;;;4846964;29;20122;-76
2022/06/24 11:30:50;;;;;;;6.32;3.05;;;;;;;;;;4846928;29;20049;-76
2022/06/24 11:33:18;;;;;;;6.10;3.50;;;;;;;;;;4833849;29;20456;-75
2022/06/24 11:35:47;;;;;;;11.18;3.85;;;;;;;;;;4844973;29;20076;-77
2022/06/24 11:38:23;;;;;;;4.50;3.20;;;;;;;;;;4841294;29;20058;-76
2022/06/24 11:40:54;;;;;;;5.68;3.20;;;;;;;;;;4854469;29;20045;-76
2022/06/24 11:43:25;;;;;;;6.05;2.85;;;;;;;;;;4872722;24;20109;-89
2022/06/24 11:46:10;;;;;;;7.15;3.10;;;;;;;;;;4843937;29;20041;-86
2022/06/24 12:19:28;;;;;;;4.03;2.00;;;;;;;;;;4652842;30;20054;-88
2022/06/24 12:39:00;;;;;;;3.08;2.00;;;;;;;;;;4818250;24;20118;-82
2022/06/24 12:41:28;;;;;;;2.83;1.55;;;;;;;;;;4844307;29;20391;-83
2022/06/24 12:43:57;;;;;;;2.72;1.50;;;;;;;;;;4850381;29;20059;-84
2022/06/24 12:46:26;;;;;;;2.92;1.42;;;;;;;;;;4849104;29;20042;-83
2022/06/24 12:51:40;;;;;;;1.23;1.02;;;;;;;;;;4841819;29;20049;-85
2022/06/24 12:54:08;;;;;;;4.20;1.55;;;;;;;;;;4851450;29;20046;-87
2022/06/24 12:56:36;;;;;;;3.22;1.30;;;;;;;;;;4840518;29;20419;-85
2022/06/24 12:59:06;;;;;;;2.28;1.40;;;;;;;;;;4811226;29;20058;-86
2022/06/24 13:01:41;;;;;;;2.15;1.33;;;;;;;;;;4815657;29;20048;-85
2022/06/24 13:04:09;;;;;;;1.80;1.40;;;;;;;;;;4825957;29;20077;-87
2022/06/24 13:06:37;;;;;;;1.73;1.25;;;;;;;;;;4814437;29;20070;-86
2022/06/24 13:09:11;;;;;;;2.97;1.30;;;;;;;;;;4834032;29;20573;-86
2022/06/24 13:11:39;;;;;;;2.45;1.40;;;;;;;;;;4822231;29;20133;-86
2022/06/24 13:14:09;;;;;;;2.55;1.58;;;;;;;;;;4838085;29;20548;-86
2022/06/24 13:16:36;;;;;;;2.58;1.48;;;;;;;;;;4826334;29;20050;-86
2022/06/24 13:19:03;;;;;;;2.08;1.40;;;;;;;;;;4826691;29;20091;-86
2022/06/24 13:21:31;;;;;;;3.00;1.55;;;;;;;;;;4842777;29;20045;-86
2022/06/24 13:23:58;;;;;;;2.13;1.50;;;;;;;;;;4829034;29;20122;-84
2022/06/24 13:26:26;;;;;;;2.10;1.20;;;;;;;;;;4838634;29;20045;-85
2022/06/24 13:28:53;;;;;;;3.20;1.38;;;;;;;;;;4824510;29;20506;-83
2022/06/24 13:31:21;;;;;;;3.58;1.70;;;;;;;;;;4807255;29;20042;-83
2022/06/24 13:33:49;;;;;;;1.95;1.30;;;;;;;;;;4837593;29;20132;-84
2022/06/24 13:36:17;;;;;;;6.30;1.30;;;;;;;;;;4815083;29;20069;-85
2022/06/24 13:38:44;;;;;;;2.50;1.52;;;;;;;;;;4838747;29;20112;-83
2022/06/24 13:41:12;;;;;;;2.13;1.10;;;;;;;;;;4837533;29;20045;-83
2022/06/24 13:43:39;;;;;;;4.95;1.20;;;;;;;;;;4840495;29;20041;-83
2022/06/24 13:46:07;;;;;;;4.22;1.10;;;;;;;;;;4824404;29;20053;-83
2022/06/24 13:48:35;;;;;;;2.65;1.23;;;;;;;;;;4827333;29;20599;-83
2022/06/24 13:51:02;;;;;;;4.05;1.25;;;;;;;;;;4835872;29;20062;-83
2022/06/24 13:53:29;;;;;;;3.50;1.35;;;;;;;;;;4835745;29;20047;-84
2022/06/24 13:55:57;;;;;;;2.65;1.40;;;;;;;;;;4815772;29;20059;-83
2022/06/24 13:58:24;;;;;;;2.55;1.27;;;;;;;;;;4819748;29;20053;-83
2022/06/24 14:00:51;;;;;;;1.50;1.20;;;;;;;;;;4845181;29;20146;-83
2022/06/24 14:03:22;;;;;;;3.13;1.45;;;;;;;;;;4829528;29;20537;-83
2022/06/24 14:05:49;;;;;;;2.30;1.30;;;;;;;;;;4831971;29;20039;-84
2022/06/24 14:08:16;;;;;;;3.13;1.60;;;;;;;;;;4822126;29;20040;-84
2022/06/24 14:10:46;;;;;;;3.05;1.33;;;;;;;;;;4838320;29;20153;-84
2022/06/24 14:13:21;;;;;;;2.08;1.27;;;;;;;;;;4826770;29;20078;-84
2022/06/24 14:15:49;;;;;;;3.28;1.13;;;;;;;;;;4837040;29;20049;-85
2022/06/24 14:18:19;;;;;;;3.33;1.17;;;;;;;;;;4815831;29;20050;-84
2022/06/24 14:20:48;;;;;;;2.20;0.90;;;;;;;;;;4808812;29;20056;-84
2022/06/24 14:26:04;;;;;;;2.55;1.30;;;;;;;;;;4835577;29;20077;-84
2022/06/24 14:28:32;;;;;;;4.65;1.05;;;;;;;;;;4833711;29;20052;-84
2022/06/24 14:31:01;;;;;;;2.95;1.30;;;;;;;;;;4803666;29;20062;-85
2022/06/24 14:33:31;;;;;;;2.08;1.30;;;;;;;;;;4838430;29;20585;-85
2022/06/24 14:36:00;;;;;;;2.10;1.00;;;;;;;;;;4835342;29;20072;-86
2022/06/24 14:41:15;;;;;;;2.65;1.00;;;;;;;;;;4819876;29;20576;-85
2022/06/24 14:43:43;;;;;;;2.28;1.17;;;;;;;;;;4819251;29;20052;-85
2022/06/24 14:46:12;;;;;;;2.65;1.00;;;;;;;;;;4801532;29;20057;-85
2022/06/24 14:48:40;;;;;;;1.98;1.10;;;;;;;;;;4820099;29;20077;-84
2022/06/24 14:51:07;;;;;;;2.92;1.00;;;;;;;;;;4807573;29;20050;-84
2022/06/24 14:53:35;;;;;;;3.90;1.45;;;;;;;;;;4831361;29;20049;-84
2022/06/24 14:56:03;;;;;;;4.57;1.48;;;;;;;;;;4805936;29;20082;-84
2022/06/24 14:58:31;;;;;;;2.10;1.20;;;;;;;;;;4813915;29;20062;-85
2022/06/24 15:01:01;;;;;;;5.15;1.40;;;;;;;;;;4793959;29;20065;-86
2022/06/24 15:03:31;;;;;;;3.38;1.42;;;;;;;;;;4800716;29;20238;-84
2022/06/24 15:06:03;;;;;;;2.65;1.40;;;;;;;;;;4807612;29;20072;-84
2022/06/24 15:08:34;;;;;;;2.08;1.20;;;;;;;;;;4800768;29;20053;-84
2022/06/24 15:11:01;;;;;;;4.88;1.30;;;;;;;;;;4832222;29;20037;-85
2022/06/24 15:13:29;;;;;;;2.75;1.20;;;;;;;;;;4823838;29;20065;-85
2022/06/24 15:15:56;;;;;;;3.97;1.35;;;;;;;;;;4836047;29;20050;-85
2022/06/24 15:18:23;;;;;;;4.78;1.40;;;;;;;;;;4836541;29;20050;-86
2022/06/24 15:20:51;;;;;;;2.08;1.50;;;;;;;;;;4808090;29;20164;-85
2022/06/24 15:23:32;;;;;;;4.63;1.45;;;;;;;;;;4822373;29;20536;-85
2022/06/24 15:25:59;;;;;;;3.25;1.40;;;;;;;;;;4817115;29;20114;-85
2022/06/24 15:28:27;;;;;;;2.05;1.13;;;;;;;;;;4811518;29;20053;-84
2022/06/24 15:30:55;;;;;;;3.42;1.58;;;;;;;;;;4816533;29;20495;-86
2022/06/24 15:33:23;;;;;;;3.33;1.40;;;;;;;;;;4827839;29;20050;-84
2022/06/24 15:35:51;;;;;;;2.10;1.35;;;;;;;;;;4798640;29;20511;-85
2022/06/24 15:38:19;;;;;;;2.58;1.38;;;;;;;;;;4817538;29;20097;-85
2022/06/24 15:40:47;;;;;;;3.78;1.40;;;;;;;;;;4822113;29;20054;-85
2022/06/24 15:43:14;;;;;;;2.85;1.80;;;;;;;;;;4794034;29;20061;-85
2022/06/24 15:45:42;;;;;;;3.30;1.40;;;;;;;;;;4816669;29;20060;-85
2022/06/24 15:48:09;;;;;;;3.95;1.50;;;;;;;;;;4795200;29;20049;-86
2022/06/24 15:50:37;;;;;;;1.95;1.38;;;;;;;;;;4808269;29;20073;-85
2022/06/24 15:53:05;;;;;;;6.28;1.42;;;;;;;;;;4801399;29;20141;-86
2022/06/24 15:55:33;;;;;;;2.60;1.27;;;;;;;;;;4802054;29;20072;-84
2022/06/24 15:58:01;;;;;;;3.67;1.67;;;;;;;;;;4826392;29;20061;-86
2022/06/24 16:00:29;;;;;;;2.53;1.70;;;;;;;;;;4809518;29;20081;-85
2022/06/24 16:02:57;;;;;;;16.75;2.92;;;;;;;;;;4829463;29;20049;-86
2022/06/24 16:05:24;;;;;;;6.03;2.10;;;;;;;;;;4835593;29;20046;-87
2022/06/24 16:07:51;;;;;;;7.45;2.30;;;;;;;;;;4824813;29;20096;-86
2022/06/24 16:10:19;;;;;;;8.80;2.65;;;;;;;;;;4833368;29;20053;-85
2022/06/24 16:12:46;;;;;;;5.30;2.47;;;;;;;;;;4817478;29;20046;-84
2022/06/24 16:15:13;;;;;;;6.95;2.53;;;;;;;;;;4827335;29;20485;-84
2022/06/24 16:17:41;;;;;;;5.78;2.60;;;;;;;;;;4831736;29;20049;-85
2022/06/24 16:20:08;;;;;;;6.07;2.38;;;;;;;;;;4827471;29;20632;-85
2022/06/24 16:22:40;;;;;;;4.05;2.40;;;;;;;;;;4837482;29;20058;-85
2022/06/24 16:30:44;;;;;;;3.97;2.50;;;;;;;;;;4818207;29;20057;-84
2022/06/24 16:33:14;;;;;;;6.07;2.22;;;;;;;;;;4831988;29;20046;-84
2022/06/24 16:35:45;;;;;;;4.32;2.17;;;;;;;;;;4836233;29;20110;-87
2022/06/24 16:38:13;;;;;;;7.82;2.20;;;;;;;;;;4828412;29;20060;-87
2022/06/24 16:40:40;;;;;;;4.38;2.25;;;;;;;;;;4829675;29;20050;-88
2022/06/24 16:43:16;;;;;;;4.25;2.00;;;;;;;;;;4810108;29;20099;-86
2022/06/24 16:45:44;;;;;;;6.82;2.33;;;;;;;;;;4810386;29;20038;-87
2022/06/24 16:48:12;;;;;;;2.38;1.42;;;;;;;;;;4819699;29;20033;-85
2022/06/24 16:50:42;;;;;;;2.92;1.55;;;;;;;;;;4811811;29;20666;-85
2022/06/24 16:53:11;;;;;;;1.65;1.20;;;;;;;;;;4822010;29;20046;-85